sensor_id;sensor_type;location;lat;lon;timestamp;P1;durP1;ratioP1;P2;durP2;ratioP2
14599;SDS011;7386;45.586;12.854;2022-12-18T00:00:12;12.27;;;9.73;;
14599;SDS011;7386;45.586;12.854;2022-12-18T00:02:41;12.73;;;10.10;;
14599;SDS011;7386;45.586;12.854;2022-12-18T00:05:10;11.33;;;9.23;;
14599;SDS011;7386;45.586;12.854;2022-12-18T00:07:39;11.33;;;9.20;;
14599;SDS011;7386;45.586;12.854;2022-12-18T00:10:08;11.37;;;9.13;;
14599;SDS011;7386;45.586;12.854;2022-12-18T00:12:40;10.60;;;8.87;;
14599;SDS011;7386;45.586;12.854;2022-12-18T00:15:09;11.07;;;9.37;;
14599;SDS011;7386;45.586;12.854;2022-12-18T00:17:38;11.23;;;9.23;;
14599;SDS011;7386;45.586;12.854;2022-12-18T00:20:06;11.43;;;9.13;;
14599;SDS011;7386;45.586;12.854;2022-12-18T00:22:35;11.90;;;9.77;;
14599;SDS011;7386;45.586;12.854;2022-12-18T00:25:06;11.10;;;9.10;;
14599;SDS011;7386;45.586;12.854;2022-12-18T00:27:34;10.47;;;8.57;;
14599;SDS011;7386;45.586;12.854;2022-12-18T00:30:03;11.77;;;9.50;;
14599;SDS011;7386;45.586;12.854;2022-12-18T00:32:32;11.47;;;9.10;;
14599;SDS011;7386;45.586;12.854;2022-12-18T00:35:00;11.27;;;9.23;;
14599;SDS011;7386;45.586;12.854;2022-12-18T00:37:29;11.03;;;9.10;;
14599;SDS011;7386;45.586;12.854;2022-12-18T00:39:57;10.77;;;9.10;;
14599;SDS011;7386;45.586;12.854;2022-12-18T00:42:27;11.10;;;8.70;;
14599;SDS011;7386;45.586;12.854;2022-12-18T00:45:13;11.07;;;9.33;;
14599;SDS011;7386;45.586;12.854;2022-12-18T00:47:42;10.20;;;8.80;;
14599;SDS011;7386;45.586;12.854;2022-12-18T00:50:10;11.40;;;9.40;;
14599;SDS011;7386;45.586;12.854;2022-12-18T00:52:39;11.47;;;9.00;;
14599;SDS011;7386;45.586;12.854;2022-12-18T00:55:07;11.57;;;9.00;;
14599;SDS011;7386;45.586;12.854;2022-12-18T00:57:37;11.73;;;9.37;;
14599;SDS011;7386;45.586;12.854;2022-12-18T01:00:07;9.80;;;8.10;;
14599;SDS011;7386;45.586;12.854;2022-12-18T01:02:36;11.43;;;8.37;;
14599;SDS011;7386;45.586;12.854;2022-12-18T01:05:05;10.47;;;8.73;;
14599;SDS011;7386;45.586;12.854;2022-12-18T01:07:33;10.13;;;8.67;;
14599;SDS011;7386;45.586;12.854;2022-12-18T01:10:02;10.47;;;8.77;;
14599;SDS011;7386;45.586;12.854;2022-12-18T01:12:31;11.90;;;8.70;;
14599;SDS011;7386;45.586;12.854;2022-12-18T01:15:01;11.00;;;8.83;;
14599;SDS011;7386;45.586;12.854;2022-12-18T01:17:29;10.27;;;8.00;;
14599;SDS011;7386;45.586;12.854;2022-12-18T01:19:57;10.60;;;8.90;;
14599;SDS011;7386;45.586;12.854;2022-12-18T01:22:26;10.93;;;9.33;;
14599;SDS011;7386;45.586;12.854;2022-12-18T01:24:54;12.17;;;9.40;;
14599;SDS011;7386;45.586;12.854;2022-12-18T01:27:23;11.70;;;9.80;;
14599;SDS011;7386;45.586;12.854;2022-12-18T01:29:51;10.87;;;9.27;;
14599;SDS011;7386;45.586;12.854;2022-12-18T01:32:21;11.23;;;9.33;;
14599;SDS011;7386;45.586;12.854;2022-12-18T01:34:50;12.67;;;10.07;;
14599;SDS011;7386;45.586;12.854;2022-12-18T01:37:18;11.90;;;9.70;;
14599;SDS011;7386;45.586;12.854;2022-12-18T01:39:47;13.17;;;10.27;;
14599;SDS011;7386;45.586;12.854;2022-12-18T01:42:16;11.47;;;9.13;;
14599;SDS011;7386;45.586;12.854;2022-12-18T01:44:54;13.30;;;9.77;;
14599;SDS011;7386;45.586;12.854;2022-12-18T01:47:26;12.73;;;10.23;;
14599;SDS011;7386;45.586;12.854;2022-12-18T01:49:55;12.77;;;10.00;;
14599;SDS011;7386;45.586;12.854;2022-12-18T01:52:24;12.13;;;9.93;;
14599;SDS011;7386;45.586;12.854;2022-12-18T01:54:54;13.17;;;10.77;;
14599;SDS011;7386;45.586;12.854;2022-12-18T01:57:23;12.87;;;10.50;;
14599;SDS011;7386;45.586;12.854;2022-12-18T01:59:52;12.37;;;9.90;;
14599;SDS011;7386;45.586;12.854;2022-12-18T02:02:21;12.70;;;10.23;;
14599;SDS011;7386;45.586;12.854;2022-12-18T02:04:52;12.27;;;10.07;;
14599;SDS011;7386;45.586;12.854;2022-12-18T02:07:23;14.00;;;10.47;;
14599;SDS011;7386;45.586;12.854;2022-12-18T02:09:54;12.60;;;10.47;;
14599;SDS011;7386;45.586;12.854;2022-12-18T02:12:26;11.50;;;9.80;;
14599;SDS011;7386;45.586;12.854;2022-12-18T02:14:58;13.03;;;10.20;;
14599;SDS011;7386;45.586;12.854;2022-12-18T02:17:30;12.40;;;10.40;;
14599;SDS011;7386;45.586;12.854;2022-12-18T02:20:05;13.77;;;10.53;;
14599;SDS011;7386;45.586;12.854;2022-12-18T02:22:37;13.07;;;10.63;;
14599;SDS011;7386;45.586;12.854;2022-12-18T02:25:13;12.37;;;10.43;;
14599;SDS011;7386;45.586;12.854;2022-12-18T02:27:45;12.37;;;10.40;;
14599;SDS011;7386;45.586;12.854;2022-12-18T02:30:14;13.20;;;10.70;;
14599;SDS011;7386;45.586;12.854;2022-12-18T02:32:45;13.40;;;11.00;;
14599;SDS011;7386;45.586;12.854;2022-12-18T02:35:16;11.70;;;10.17;;
14599;SDS011;7386;45.586;12.854;2022-12-18T02:37:45;13.60;;;10.90;;
14599;SDS011;7386;45.586;12.854;2022-12-18T02:40:15;12.83;;;10.43;;
14599;SDS011;7386;45.586;12.854;2022-12-18T02:42:46;12.60;;;10.87;;
14599;SDS011;7386;45.586;12.854;2022-12-18T02:45:14;12.73;;;10.27;;
14599;SDS011;7386;45.586;12.854;2022-12-18T02:47:43;13.90;;;10.63;;
14599;SDS011;7386;45.586;12.854;2022-12-18T02:50:16;14.03;;;10.57;;
14599;SDS011;7386;45.586;12.854;2022-12-18T02:52:51;11.90;;;9.87;;
14599;SDS011;7386;45.586;12.854;2022-12-18T02:55:26;13.60;;;10.53;;
14599;SDS011;7386;45.586;12.854;2022-12-18T02:57:58;12.70;;;10.63;;
14599;SDS011;7386;45.586;12.854;2022-12-18T03:00:29;13.67;;;10.63;;
14599;SDS011;7386;45.586;12.854;2022-12-18T03:03:01;13.73;;;10.50;;
14599;SDS011;7386;45.586;12.854;2022-12-18T03:05:34;13.43;;;10.40;;
14599;SDS011;7386;45.586;12.854;2022-12-18T03:08:06;12.30;;;10.10;;
14599;SDS011;7386;45.586;12.854;2022-12-18T03:10:37;13.20;;;10.77;;
14599;SDS011;7386;45.586;12.854;2022-12-18T03:13:09;13.87;;;10.77;;
14599;SDS011;7386;45.586;12.854;2022-12-18T03:15:39;14.07;;;10.60;;
14599;SDS011;7386;45.586;12.854;2022-12-18T03:18:09;12.47;;;9.67;;
14599;SDS011;7386;45.586;12.854;2022-12-18T03:20:39;12.37;;;10.30;;
14599;SDS011;7386;45.586;12.854;2022-12-18T03:23:09;13.73;;;10.97;;
14599;SDS011;7386;45.586;12.854;2022-12-18T03:25:40;13.27;;;10.97;;
14599;SDS011;7386;45.586;12.854;2022-12-18T03:28:12;13.47;;;10.87;;
14599;SDS011;7386;45.586;12.854;2022-12-18T03:30:42;13.87;;;11.00;;
14599;SDS011;7386;45.586;12.854;2022-12-18T03:33:12;16.20;;;10.87;;
14599;SDS011;7386;45.586;12.854;2022-12-18T03:35:41;12.33;;;10.30;;
14599;SDS011;7386;45.586;12.854;2022-12-18T03:38:11;13.70;;;11.20;;
14599;SDS011;7386;45.586;12.854;2022-12-18T03:40:43;13.13;;;10.20;;
14599;SDS011;7386;45.586;12.854;2022-12-18T03:43:16;12.80;;;10.00;;
14599;SDS011;7386;45.586;12.854;2022-12-18T03:45:48;11.97;;;9.97;;
14599;SDS011;7386;45.586;12.854;2022-12-18T03:48:20;12.53;;;10.07;;
14599;SDS011;7386;45.586;12.854;2022-12-18T03:50:52;12.93;;;10.07;;
14599;SDS011;7386;45.586;12.854;2022-12-18T03:53:26;13.30;;;10.27;;
14599;SDS011;7386;45.586;12.854;2022-12-18T03:55:57;13.43;;;10.70;;
14599;SDS011;7386;45.586;12.854;2022-12-18T03:58:28;13.43;;;10.90;;
14599;SDS011;7386;45.586;12.854;2022-12-18T04:00:58;13.33;;;10.67;;
14599;SDS011;7386;45.586;12.854;2022-12-18T04:03:27;14.20;;;11.27;;
14599;SDS011;7386;45.586;12.854;2022-12-18T04:05:56;13.93;;;10.93;;
14599;SDS011;7386;45.586;12.854;2022-12-18T04:08:27;13.33;;;9.63;;
14599;SDS011;7386;45.586;12.854;2022-12-18T04:10:56;14.40;;;11.27;;
14599;SDS011;7386;45.586;12.854;2022-12-18T04:13:24;13.77;;;11.07;;
14599;SDS011;7386;45.586;12.854;2022-12-18T04:15:57;13.67;;;11.07;;
14599;SDS011;7386;45.586;12.854;2022-12-18T04:18:25;14.63;;;10.93;;
14599;SDS011;7386;45.586;12.854;2022-12-18T04:20:54;15.00;;;11.40;;
14599;SDS011;7386;45.586;12.854;2022-12-18T04:23:22;13.23;;;10.93;;
14599;SDS011;7386;45.586;12.854;2022-12-18T04:25:51;13.97;;;11.20;;
14599;SDS011;7386;45.586;12.854;2022-12-18T04:28:19;15.23;;;11.67;;
14599;SDS011;7386;45.586;12.854;2022-12-18T04:30:48;15.20;;;11.93;;
14599;SDS011;7386;45.586;12.854;2022-12-18T04:33:18;14.90;;;11.80;;
14599;SDS011;7386;45.586;12.854;2022-12-18T04:35:46;15.77;;;12.33;;
14599;SDS011;7386;45.586;12.854;2022-12-18T04:38:15;14.70;;;11.40;;
14599;SDS011;7386;45.586;12.854;2022-12-18T04:40:43;16.70;;;12.43;;
14599;SDS011;7386;45.586;12.854;2022-12-18T04:43:12;16.37;;;12.17;;
14599;SDS011;7386;45.586;12.854;2022-12-18T04:45:40;15.37;;;12.10;;
14599;SDS011;7386;45.586;12.854;2022-12-18T04:48:08;17.30;;;12.93;;
14599;SDS011;7386;45.586;12.854;2022-12-18T04:50:39;17.63;;;13.17;;
14599;SDS011;7386;45.586;12.854;2022-12-18T04:53:07;15.50;;;11.80;;
14599;SDS011;7386;45.586;12.854;2022-12-18T04:55:35;16.33;;;13.03;;
14599;SDS011;7386;45.586;12.854;2022-12-18T04:58:04;16.20;;;13.47;;
14599;SDS011;7386;45.586;12.854;2022-12-18T05:00:32;16.90;;;13.00;;
14599;SDS011;7386;45.586;12.854;2022-12-18T05:03:01;16.23;;;12.43;;
14599;SDS011;7386;45.586;12.854;2022-12-18T05:05:29;16.43;;;12.93;;
14599;SDS011;7386;45.586;12.854;2022-12-18T05:08:00;17.17;;;13.30;;
14599;SDS011;7386;45.586;12.854;2022-12-18T05:10:29;16.93;;;13.17;;
14599;SDS011;7386;45.586;12.854;2022-12-18T05:13:03;17.77;;;13.57;;
14599;SDS011;7386;45.586;12.854;2022-12-18T05:15:32;17.30;;;13.10;;
14599;SDS011;7386;45.586;12.854;2022-12-18T05:18:03;18.50;;;14.27;;
14599;SDS011;7386;45.586;12.854;2022-12-18T05:20:31;18.60;;;13.73;;
14599;SDS011;7386;45.586;12.854;2022-12-18T05:23:01;19.17;;;14.13;;
14599;SDS011;7386;45.586;12.854;2022-12-18T05:25:30;18.43;;;14.63;;
14599;SDS011;7386;45.586;12.854;2022-12-18T05:27:59;16.63;;;13.23;;
14599;SDS011;7386;45.586;12.854;2022-12-18T05:30:27;16.10;;;13.10;;
14599;SDS011;7386;45.586;12.854;2022-12-18T05:32:55;17.33;;;13.50;;
14599;SDS011;7386;45.586;12.854;2022-12-18T05:35:24;17.57;;;13.57;;
14599;SDS011;7386;45.586;12.854;2022-12-18T05:37:53;17.90;;;13.63;;
14599;SDS011;7386;45.586;12.854;2022-12-18T05:40:23;17.73;;;12.90;;
14599;SDS011;7386;45.586;12.854;2022-12-18T05:42:51;18.20;;;13.43;;
14599;SDS011;7386;45.586;12.854;2022-12-18T05:45:19;19.27;;;14.00;;
14599;SDS011;7386;45.586;12.854;2022-12-18T05:47:48;18.03;;;13.70;;
14599;SDS011;7386;45.586;12.854;2022-12-18T05:50:16;19.57;;;14.20;;
14599;SDS011;7386;45.586;12.854;2022-12-18T05:52:45;18.97;;;14.37;;
14599;SDS011;7386;45.586;12.854;2022-12-18T05:55:13;20.03;;;15.30;;
14599;SDS011;7386;45.586;12.854;2022-12-18T05:57:43;18.60;;;14.43;;
14599;SDS011;7386;45.586;12.854;2022-12-18T06:00:13;18.93;;;14.17;;
14599;SDS011;7386;45.586;12.854;2022-12-18T06:02:42;19.57;;;14.33;;
14599;SDS011;7386;45.586;12.854;2022-12-18T06:05:11;20.70;;;14.80;;
14599;SDS011;7386;45.586;12.854;2022-12-18T06:07:39;18.27;;;14.13;;
14599;SDS011;7386;45.586;12.854;2022-12-18T06:10:08;18.57;;;14.20;;
14599;SDS011;7386;45.586;12.854;2022-12-18T06:12:37;19.07;;;14.10;;
14599;SDS011;7386;45.586;12.854;2022-12-18T06:15:09;18.43;;;14.60;;
14599;SDS011;7386;45.586;12.854;2022-12-18T06:17:37;20.67;;;14.83;;
14599;SDS011;7386;45.586;12.854;2022-12-18T06:20:06;21.67;;;14.20;;
14599;SDS011;7386;45.586;12.854;2022-12-18T06:22:35;18.67;;;14.07;;
14599;SDS011;7386;45.586;12.854;2022-12-18T06:25:04;20.20;;;14.67;;
14599;SDS011;7386;45.586;12.854;2022-12-18T06:27:33;19.63;;;15.13;;
14599;SDS011;7386;45.586;12.854;2022-12-18T06:30:02;16.40;;;13.53;;
14599;SDS011;7386;45.586;12.854;2022-12-18T06:32:32;19.40;;;13.20;;
14599;SDS011;7386;45.586;12.854;2022-12-18T06:35:00;18.60;;;13.80;;
14599;SDS011;7386;45.586;12.854;2022-12-18T06:37:30;17.87;;;12.33;;
14599;SDS011;7386;45.586;12.854;2022-12-18T06:39:58;16.13;;;12.30;;
14599;SDS011;7386;45.586;12.854;2022-12-18T06:42:28;15.97;;;12.30;;
14599;SDS011;7386;45.586;12.854;2022-12-18T06:44:56;18.37;;;12.73;;
14599;SDS011;7386;45.586;12.854;2022-12-18T06:47:24;16.30;;;12.27;;
14599;SDS011;7386;45.586;12.854;2022-12-18T06:49:54;14.23;;;11.03;;
14599;SDS011;7386;45.586;12.854;2022-12-18T06:52:23;16.23;;;11.67;;
14599;SDS011;7386;45.586;12.854;2022-12-18T06:54:51;15.43;;;11.83;;
14599;SDS011;7386;45.586;12.854;2022-12-18T06:57:19;14.83;;;11.50;;
14599;SDS011;7386;45.586;12.854;2022-12-18T06:59:48;15.47;;;11.60;;
14599;SDS011;7386;45.586;12.854;2022-12-18T07:02:16;18.20;;;13.47;;
14599;SDS011;7386;45.586;12.854;2022-12-18T07:04:45;18.43;;;12.87;;
14599;SDS011;7386;45.586;12.854;2022-12-18T07:07:15;16.23;;;12.43;;
14599;SDS011;7386;45.586;12.854;2022-12-18T07:09:43;16.37;;;12.60;;
14599;SDS011;7386;45.586;12.854;2022-12-18T07:12:12;17.77;;;13.80;;
14599;SDS011;7386;45.586;12.854;2022-12-18T07:14:40;15.30;;;11.93;;
14599;SDS011;7386;45.586;12.854;2022-12-18T07:17:09;16.77;;;11.90;;
14599;SDS011;7386;45.586;12.854;2022-12-18T07:19:37;17.47;;;12.53;;
14599;SDS011;7386;45.586;12.854;2022-12-18T07:22:06;16.67;;;13.00;;
14599;SDS011;7386;45.586;12.854;2022-12-18T07:24:35;16.63;;;12.47;;
14599;SDS011;7386;45.586;12.854;2022-12-18T07:27:04;19.13;;;13.43;;
14599;SDS011;7386;45.586;12.854;2022-12-18T07:29:33;15.83;;;12.60;;
14599;SDS011;7386;45.586;12.854;2022-12-18T07:32:03;15.93;;;11.93;;
14599;SDS011;7386;45.586;12.854;2022-12-18T07:34:32;17.50;;;13.30;;
14599;SDS011;7386;45.586;12.854;2022-12-18T07:37:00;17.33;;;13.10;;
14599;SDS011;7386;45.586;12.854;2022-12-18T07:39:29;18.27;;;13.60;;
14599;SDS011;7386;45.586;12.854;2022-12-18T07:41:58;17.07;;;13.00;;
14599;SDS011;7386;45.586;12.854;2022-12-18T07:44:46;17.80;;;13.23;;
14599;SDS011;7386;45.586;12.854;2022-12-18T07:47:14;17.27;;;13.23;;
14599;SDS011;7386;45.586;12.854;2022-12-18T07:49:43;17.73;;;13.33;;
14599;SDS011;7386;45.586;12.854;2022-12-18T07:52:11;16.67;;;12.73;;
14599;SDS011;7386;45.586;12.854;2022-12-18T07:54:40;17.60;;;12.90;;
14599;SDS011;7386;45.586;12.854;2022-12-18T07:57:09;18.00;;;13.23;;
14599;SDS011;7386;45.586;12.854;2022-12-18T07:59:58;18.20;;;13.40;;
14599;SDS011;7386;45.586;12.854;2022-12-18T08:02:29;20.63;;;14.07;;
14599;SDS011;7386;45.586;12.854;2022-12-18T08:04:59;20.87;;;14.47;;
14599;SDS011;7386;45.586;12.854;2022-12-18T08:07:27;18.30;;;14.00;;
14599;SDS011;7386;45.586;12.854;2022-12-18T08:09:56;17.97;;;13.43;;
14599;SDS011;7386;45.586;12.854;2022-12-18T08:12:26;19.07;;;14.37;;
14599;SDS011;7386;45.586;12.854;2022-12-18T08:14:54;17.77;;;14.50;;
14599;SDS011;7386;45.586;12.854;2022-12-18T08:17:23;18.73;;;14.40;;
14599;SDS011;7386;45.586;12.854;2022-12-18T08:19:51;18.93;;;13.63;;
14599;SDS011;7386;45.586;12.854;2022-12-18T08:22:20;19.90;;;15.50;;
14599;SDS011;7386;45.586;12.854;2022-12-18T08:24:48;20.30;;;14.70;;
14599;SDS011;7386;45.586;12.854;2022-12-18T08:27:17;20.40;;;13.70;;
14599;SDS011;7386;45.586;12.854;2022-12-18T08:29:56;17.70;;;13.43;;
14599;SDS011;7386;45.586;12.854;2022-12-18T08:32:25;18.17;;;13.80;;
14599;SDS011;7386;45.586;12.854;2022-12-18T08:34:54;17.67;;;12.60;;
14599;SDS011;7386;45.586;12.854;2022-12-18T08:37:22;19.10;;;14.27;;
14599;SDS011;7386;45.586;12.854;2022-12-18T08:39:51;18.87;;;14.07;;
14599;SDS011;7386;45.586;12.854;2022-12-18T08:42:19;18.53;;;13.33;;
14599;SDS011;7386;45.586;12.854;2022-12-18T08:45:07;18.03;;;13.40;;
14599;SDS011;7386;45.586;12.854;2022-12-18T08:47:36;16.83;;;12.73;;
14599;SDS011;7386;45.586;12.854;2022-12-18T08:50:04;17.47;;;12.50;;
14599;SDS011;7386;45.586;12.854;2022-12-18T08:52:33;17.63;;;13.77;;
14599;SDS011;7386;45.586;12.854;2022-12-18T08:55:01;18.50;;;13.77;;
14599;SDS011;7386;45.586;12.854;2022-12-18T08:57:30;19.30;;;14.10;;
14599;SDS011;7386;45.586;12.854;2022-12-18T08:59:58;17.87;;;13.13;;
14599;SDS011;7386;45.586;12.854;2022-12-18T09:02:28;16.97;;;12.73;;
14599;SDS011;7386;45.586;12.854;2022-12-18T09:04:57;17.30;;;13.77;;
14599;SDS011;7386;45.586;12.854;2022-12-18T09:07:25;20.67;;;14.83;;
14599;SDS011;7386;45.586;12.854;2022-12-18T09:09:54;19.73;;;13.73;;
14599;SDS011;7386;45.586;12.854;2022-12-18T09:12:22;19.33;;;14.30;;
14599;SDS011;7386;45.586;12.854;2022-12-18T09:14:51;19.27;;;14.77;;
14599;SDS011;7386;45.586;12.854;2022-12-18T09:17:20;19.40;;;14.40;;
14599;SDS011;7386;45.586;12.854;2022-12-18T09:19:49;19.50;;;14.10;;
14599;SDS011;7386;45.586;12.854;2022-12-18T09:22:18;18.07;;;14.67;;
14599;SDS011;7386;45.586;12.854;2022-12-18T09:24:48;21.13;;;14.83;;
14599;SDS011;7386;45.586;12.854;2022-12-18T09:27:16;21.90;;;15.77;;
14599;SDS011;7386;45.586;12.854;2022-12-18T09:29:45;22.13;;;16.30;;
14599;SDS011;7386;45.586;12.854;2022-12-18T09:32:14;20.53;;;15.17;;
14599;SDS011;7386;45.586;12.854;2022-12-18T09:34:47;20.57;;;14.57;;
14599;SDS011;7386;45.586;12.854;2022-12-18T09:37:17;19.53;;;14.83;;
14599;SDS011;7386;45.586;12.854;2022-12-18T09:39:46;19.90;;;14.90;;
14599;SDS011;7386;45.586;12.854;2022-12-18T09:42:16;20.33;;;14.37;;
14599;SDS011;7386;45.586;12.854;2022-12-18T09:44:47;18.70;;;13.60;;
14599;SDS011;7386;45.586;12.854;2022-12-18T09:47:17;19.27;;;14.37;;
14599;SDS011;7386;45.586;12.854;2022-12-18T09:49:47;18.83;;;13.87;;
14599;SDS011;7386;45.586;12.854;2022-12-18T09:52:19;19.30;;;13.90;;
14599;SDS011;7386;45.586;12.854;2022-12-18T09:54:50;21.27;;;15.67;;
14599;SDS011;7386;45.586;12.854;2022-12-18T09:57:20;21.13;;;15.40;;
14599;SDS011;7386;45.586;12.854;2022-12-18T09:59:50;19.13;;;13.87;;
14599;SDS011;7386;45.586;12.854;2022-12-18T10:02:20;20.07;;;14.23;;
14599;SDS011;7386;45.586;12.854;2022-12-18T10:04:52;21.77;;;15.60;;
14599;SDS011;7386;45.586;12.854;2022-12-18T10:07:24;19.57;;;14.97;;
14599;SDS011;7386;45.586;12.854;2022-12-18T10:09:58;19.03;;;14.70;;
14599;SDS011;7386;45.586;12.854;2022-12-18T10:12:30;20.10;;;14.83;;
14599;SDS011;7386;45.586;12.854;2022-12-18T10:15:01;20.33;;;14.37;;
14599;SDS011;7386;45.586;12.854;2022-12-18T10:17:34;21.47;;;15.27;;
14599;SDS011;7386;45.586;12.854;2022-12-18T10:20:09;21.07;;;15.33;;
14599;SDS011;7386;45.586;12.854;2022-12-18T10:22:42;20.13;;;14.10;;
14599;SDS011;7386;45.586;12.854;2022-12-18T10:25:16;20.10;;;14.53;;
14599;SDS011;7386;45.586;12.854;2022-12-18T10:27:46;21.03;;;13.83;;
14599;SDS011;7386;45.586;12.854;2022-12-18T10:30:16;18.50;;;14.03;;
14599;SDS011;7386;45.586;12.854;2022-12-18T10:32:45;18.10;;;13.93;;
14599;SDS011;7386;45.586;12.854;2022-12-18T10:35:15;19.93;;;15.03;;
14599;SDS011;7386;45.586;12.854;2022-12-18T10:38:03;19.97;;;14.33;;
14599;SDS011;7386;45.586;12.854;2022-12-18T10:40:31;19.93;;;15.00;;
14599;SDS011;7386;45.586;12.854;2022-12-18T10:43:04;23.03;;;14.77;;
14599;SDS011;7386;45.586;12.854;2022-12-18T10:45:33;18.97;;;14.10;;
14599;SDS011;7386;45.586;12.854;2022-12-18T10:48:02;22.23;;;16.20;;
14599;SDS011;7386;45.586;12.854;2022-12-18T10:50:32;19.77;;;14.83;;
14599;SDS011;7386;45.586;12.854;2022-12-18T10:53:23;21.87;;;15.50;;
14599;SDS011;7386;45.586;12.854;2022-12-18T10:55:52;18.57;;;14.37;;
14599;SDS011;7386;45.586;12.854;2022-12-18T10:58:24;19.80;;;15.10;;
14599;SDS011;7386;45.586;12.854;2022-12-18T11:01:06;20.03;;;14.70;;
14599;SDS011;7386;45.586;12.854;2022-12-18T11:03:36;21.20;;;15.63;;
14599;SDS011;7386;45.586;12.854;2022-12-18T11:06:06;19.63;;;14.50;;
14599;SDS011;7386;45.586;12.854;2022-12-18T11:08:37;19.70;;;14.90;;
14599;SDS011;7386;45.586;12.854;2022-12-18T11:11:07;20.10;;;15.13;;
14599;SDS011;7386;45.586;12.854;2022-12-18T11:13:42;20.07;;;14.67;;
14599;SDS011;7386;45.586;12.854;2022-12-18T11:16:18;20.03;;;14.30;;
14599;SDS011;7386;45.586;12.854;2022-12-18T11:18:47;20.00;;;15.33;;
14599;SDS011;7386;45.586;12.854;2022-12-18T11:21:15;19.67;;;15.17;;
14599;SDS011;7386;45.586;12.854;2022-12-18T11:23:48;20.60;;;14.67;;
14599;SDS011;7386;45.586;12.854;2022-12-18T11:26:17;18.20;;;13.50;;
14599;SDS011;7386;45.586;12.854;2022-12-18T11:28:49;19.17;;;14.03;;
14599;SDS011;7386;45.586;12.854;2022-12-18T11:31:23;22.37;;;16.20;;
14599;SDS011;7386;45.586;12.854;2022-12-18T11:33:53;19.73;;;14.50;;
14599;SDS011;7386;45.586;12.854;2022-12-18T11:36:44;17.10;;;13.37;;
14599;SDS011;7386;45.586;12.854;2022-12-18T11:39:17;20.07;;;15.43;;
14599;SDS011;7386;45.586;12.854;2022-12-18T11:41:49;19.83;;;14.83;;
14599;SDS011;7386;45.586;12.854;2022-12-18T11:44:41;20.60;;;14.77;;
14599;SDS011;7386;45.586;12.854;2022-12-18T11:47:13;21.00;;;14.80;;
14599;SDS011;7386;45.586;12.854;2022-12-18T11:49:43;18.37;;;14.00;;
14599;SDS011;7386;45.586;12.854;2022-12-18T11:52:14;18.30;;;13.73;;
14599;SDS011;7386;45.586;12.854;2022-12-18T11:54:45;18.40;;;12.97;;
14599;SDS011;7386;45.586;12.854;2022-12-18T11:57:14;17.93;;;13.33;;
14599;SDS011;7386;45.586;12.854;2022-12-18T11:59:47;18.63;;;14.00;;
14599;SDS011;7386;45.586;12.854;2022-12-18T12:02:22;20.13;;;14.97;;
14599;SDS011;7386;45.586;12.854;2022-12-18T12:07:40;19.43;;;14.67;;
14599;SDS011;7386;45.586;12.854;2022-12-18T12:10:16;20.57;;;14.33;;
14599;SDS011;7386;45.586;12.854;2022-12-18T12:12:53;17.40;;;12.93;;
14599;SDS011;7386;45.586;12.854;2022-12-18T12:15:25;18.47;;;13.77;;
14599;SDS011;7386;45.586;12.854;2022-12-18T12:17:58;17.80;;;13.90;;
14599;SDS011;7386;45.586;12.854;2022-12-18T12:20:39;21.90;;;16.17;;
14599;SDS011;7386;45.586;12.854;2022-12-18T12:23:12;17.57;;;13.80;;
14599;SDS011;7386;45.586;12.854;2022-12-18T12:25:46;18.60;;;13.57;;
14599;SDS011;7386;45.586;12.854;2022-12-18T12:28:18;18.27;;;13.00;;
14599;SDS011;7386;45.586;12.854;2022-12-18T12:30:51;20.67;;;15.43;;
14599;SDS011;7386;45.586;12.854;2022-12-18T12:33:27;20.23;;;14.17;;
14599;SDS011;7386;45.586;12.854;2022-12-18T12:35:59;22.27;;;15.63;;
14599;SDS011;7386;45.586;12.854;2022-12-18T12:38:31;19.47;;;15.00;;
14599;SDS011;7386;45.586;12.854;2022-12-18T12:41:02;21.90;;;14.53;;
14599;SDS011;7386;45.586;12.854;2022-12-18T12:43:33;17.77;;;13.63;;
14599;SDS011;7386;45.586;12.854;2022-12-18T12:46:03;18.13;;;12.93;;
14599;SDS011;7386;45.586;12.854;2022-12-18T12:48:35;18.47;;;14.03;;
14599;SDS011;7386;45.586;12.854;2022-12-18T12:51:07;16.10;;;12.50;;
14599;SDS011;7386;45.586;12.854;2022-12-18T12:53:37;16.60;;;13.13;;
14599;SDS011;7386;45.586;12.854;2022-12-18T12:56:09;19.80;;;15.07;;
14599;SDS011;7386;45.586;12.854;2022-12-18T12:58:42;19.37;;;14.40;;
14599;SDS011;7386;45.586;12.854;2022-12-18T13:01:16;18.67;;;14.10;;
14599;SDS011;7386;45.586;12.854;2022-12-18T13:03:53;17.40;;;13.73;;
14599;SDS011;7386;45.586;12.854;2022-12-18T13:06:36;17.10;;;12.60;;
14599;SDS011;7386;45.586;12.854;2022-12-18T13:09:10;16.43;;;12.43;;
14599;SDS011;7386;45.586;12.854;2022-12-18T13:11:40;16.77;;;12.17;;
14599;SDS011;7386;45.586;12.854;2022-12-18T13:14:28;18.13;;;13.43;;
14599;SDS011;7386;45.586;12.854;2022-12-18T13:19:48;16.80;;;12.70;;
14599;SDS011;7386;45.586;12.854;2022-12-18T13:22:20;17.13;;;12.93;;
14599;SDS011;7386;45.586;12.854;2022-12-18T13:24:50;19.23;;;13.87;;
14599;SDS011;7386;45.586;12.854;2022-12-18T13:33:07;19.83;;;14.03;;
14599;SDS011;7386;45.586;12.854;2022-12-18T13:36:00;17.07;;;12.43;;
14599;SDS011;7386;45.586;12.854;2022-12-18T13:38:32;18.40;;;13.90;;
14599;SDS011;7386;45.586;12.854;2022-12-18T13:41:02;16.73;;;12.77;;
14599;SDS011;7386;45.586;12.854;2022-12-18T13:43:33;16.10;;;12.77;;
14599;SDS011;7386;45.586;12.854;2022-12-18T13:46:05;16.60;;;12.13;;
14599;SDS011;7386;45.586;12.854;2022-12-18T13:48:37;16.73;;;12.10;;
14599;SDS011;7386;45.586;12.854;2022-12-18T13:51:07;17.40;;;12.80;;
14599;SDS011;7386;45.586;12.854;2022-12-18T13:53:38;18.03;;;13.73;;
14599;SDS011;7386;45.586;12.854;2022-12-18T13:56:14;16.53;;;12.27;;
14599;SDS011;7386;45.586;12.854;2022-12-18T13:58:43;17.87;;;12.90;;
14599;SDS011;7386;45.586;12.854;2022-12-18T14:01:24;17.97;;;14.10;;
14599;SDS011;7386;45.586;12.854;2022-12-18T14:06:47;16.63;;;12.90;;
14599;SDS011;7386;45.586;12.854;2022-12-18T14:09:19;17.80;;;13.10;;
14599;SDS011;7386;45.586;12.854;2022-12-18T14:11:49;15.20;;;12.13;;
14599;SDS011;7386;45.586;12.854;2022-12-18T14:14:18;14.97;;;11.40;;
14599;SDS011;7386;45.586;12.854;2022-12-18T14:16:49;15.93;;;12.30;;
14599;SDS011;7386;45.586;12.854;2022-12-18T14:19:19;16.57;;;12.23;;
14599;SDS011;7386;45.586;12.854;2022-12-18T14:21:49;15.90;;;12.27;;
14599;SDS011;7386;45.586;12.854;2022-12-18T14:24:19;15.90;;;12.40;;
14599;SDS011;7386;45.586;12.854;2022-12-18T14:26:47;16.57;;;12.30;;
14599;SDS011;7386;45.586;12.854;2022-12-18T14:29:24;17.07;;;12.87;;
14599;SDS011;7386;45.586;12.854;2022-12-18T14:32:09;14.60;;;11.73;;
14599;SDS011;7386;45.586;12.854;2022-12-18T14:34:43;17.87;;;12.30;;
14599;SDS011;7386;45.586;12.854;2022-12-18T14:37:13;15.77;;;11.33;;
14599;SDS011;7386;45.586;12.854;2022-12-18T14:39:51;14.37;;;11.03;;
14599;SDS011;7386;45.586;12.854;2022-12-18T14:42:20;17.43;;;13.17;;
14599;SDS011;7386;45.586;12.854;2022-12-18T14:44:48;18.43;;;14.57;;
14599;SDS011;7386;45.586;12.854;2022-12-18T14:47:37;15.57;;;12.00;;
14599;SDS011;7386;45.586;12.854;2022-12-18T14:50:11;16.80;;;12.07;;
14599;SDS011;7386;45.586;12.854;2022-12-18T14:52:41;17.23;;;13.13;;
14599;SDS011;7386;45.586;12.854;2022-12-18T14:55:14;16.53;;;13.33;;
14599;SDS011;7386;45.586;12.854;2022-12-18T14:57:43;17.37;;;13.73;;